createdAt,value
2023-01-08T00:01:59.484Z,9.73
2023-01-08T00:04:26.886Z,5.90
2023-01-08T00:06:55.516Z,7.00
2023-01-08T00:09:23.485Z,4.55
2023-01-08T00:11:51.401Z,3.60
2023-01-08T00:14:38.137Z,2.47
2023-01-08T00:19:42.900Z,3.08
2023-01-08T00:22:10.656Z,3.38
2023-01-08T00:24:37.986Z,2.95
2023-01-08T00:27:05.188Z,2.97
2023-01-08T00:29:32.570Z,3.22
2023-01-08T00:31:59.780Z,2.42
2023-01-08T00:34:27.065Z,2.45
2023-01-08T00:36:54.250Z,2.53
2023-01-08T00:39:21.718Z,2.58
2023-01-08T00:41:49.913Z,3.67
2023-01-08T00:44:17.064Z,2.17
2023-01-08T00:46:44.225Z,4.13
2023-01-08T00:49:11.345Z,4.63
2023-01-08T00:51:38.540Z,6.22
2023-01-08T00:54:06.191Z,4.68
2023-01-08T00:59:00.674Z,3.78
2023-01-08T01:01:30.810Z,4.13
2023-01-08T01:03:58.429Z,6.60
2023-01-08T01:08:52.978Z,5.75
2023-01-08T01:11:24.676Z,5.15
2023-01-08T01:13:54.256Z,4.88
2023-01-08T01:16:22.345Z,4.82
2023-01-08T01:18:49.683Z,4.97
2023-01-08T01:21:30.444Z,4.53
2023-01-08T01:24:02.668Z,4.60
2023-01-08T01:26:31.296Z,5.30
2023-01-08T01:29:00.088Z,8.20
2023-01-08T01:31:31.285Z,5.75
2023-01-08T01:33:59.289Z,6.18
2023-01-08T01:36:27.459Z,5.32
2023-01-08T01:38:58.036Z,5.13
2023-01-08T01:41:30.050Z,5.45
2023-01-08T01:44:01.382Z,6.00
2023-01-08T01:46:40.224Z,5.53
2023-01-08T01:49:15.929Z,5.57
2023-01-08T01:51:52.910Z,5.20
2023-01-08T01:54:20.816Z,5.38
2023-01-08T01:56:48.641Z,5.63
2023-01-08T01:59:16.757Z,5.78
2023-01-08T02:01:48.505Z,5.90
2023-01-08T02:04:16.826Z,5.28
2023-01-08T02:07:04.184Z,4.90
2023-01-08T02:09:51.889Z,5.05
2023-01-08T02:12:56.882Z,4.35
2023-01-08T02:15:47.541Z,4.53
2023-01-08T02:18:33.080Z,4.70
2023-01-08T02:21:39.020Z,4.75
2023-01-08T02:24:19.443Z,5.03
2023-01-08T02:26:48.651Z,4.57
2023-01-08T02:29:26.157Z,4.55
2023-01-08T02:31:53.431Z,4.50
2023-01-08T02:34:20.751Z,4.50
2023-01-08T02:36:54.519Z,5.63
2023-01-08T02:39:45.422Z,5.22
2023-01-08T02:42:49.880Z,5.32
2023-01-08T02:45:43.221Z,4.38
2023-01-08T02:48:22.368Z,4.78
2023-01-08T02:50:55.601Z,5.03
2023-01-08T02:53:35.056Z,4.95
2023-01-08T02:56:13.858Z,5.25
2023-01-08T02:58:43.832Z,5.15
2023-01-08T03:01:16.589Z,5.30
2023-01-08T03:04:00.018Z,4.90
2023-01-08T03:06:29.764Z,4.93
2023-01-08T03:08:59.194Z,4.85
2023-01-08T03:11:38.401Z,5.78
2023-01-08T03:14:23.133Z,4.63
2023-01-08T03:17:30.398Z,3.72
2023-01-08T03:22:34.002Z,4.53
2023-01-08T03:25:06.922Z,4.85
2023-01-08T03:27:45.905Z,4.00
2023-01-08T03:30:19.951Z,4.43
2023-01-08T03:32:50.397Z,3.50
2023-01-08T03:35:26.073Z,3.97
2023-01-08T03:38:05.931Z,3.67
2023-01-08T03:40:46.394Z,3.97
2023-01-08T03:43:20.489Z,4.20
2023-01-08T03:46:01.791Z,4.60
2023-01-08T03:48:35.663Z,4.50
2023-01-08T03:53:30.699Z,3.78
2023-01-08T03:56:00.617Z,4.32
2023-01-08T03:58:29.385Z,4.60
2023-01-08T04:00:56.767Z,3.42
2023-01-08T04:03:27.499Z,4.18
2023-01-08T04:05:55.006Z,3.88
2023-01-08T04:08:23.003Z,3.30
2023-01-08T04:10:54.572Z,3.13
2023-01-08T04:13:22.606Z,3.20
2023-01-08T04:15:53.948Z,3.70
2023-01-08T04:18:28.153Z,4.05
2023-01-08T04:20:55.626Z,4.15
2023-01-08T04:23:27.078Z,3.67
2023-01-08T04:25:54.769Z,3.58
2023-01-08T04:28:27.739Z,3.47
2023-01-08T04:30:55.585Z,4.30
2023-01-08T04:33:27.431Z,3.75
2023-01-08T04:35:54.698Z,3.88
2023-01-08T04:38:21.880Z,4.47
2023-01-08T04:40:48.994Z,4.05
2023-01-08T04:43:16.229Z,10.77
2023-01-08T04:45:43.426Z,5.03
2023-01-08T04:48:14.051Z,4.07
2023-01-08T04:50:42.321Z,4.55
2023-01-08T04:53:13.161Z,6.05
2023-01-08T04:55:40.972Z,5.18
2023-01-08T04:58:19.014Z,5.05
2023-01-08T05:00:47.189Z,4.55
2023-01-08T05:05:49.897Z,3.28
2023-01-08T05:08:17.261Z,3.78
2023-01-08T05:10:44.535Z,3.50
2023-01-08T05:13:11.657Z,3.72
2023-01-08T05:15:38.851Z,3.55
2023-01-08T05:18:06.858Z,3.78
2023-01-08T05:20:34.984Z,3.83
2023-01-08T05:23:02.939Z,3.60
2023-01-08T05:25:30.277Z,3.88
2023-01-08T05:27:57.468Z,3.65
2023-01-08T05:30:24.610Z,4.15
2023-01-08T05:32:51.892Z,3.60
2023-01-08T05:35:19.484Z,3.63
2023-01-08T05:40:13.734Z,3.47
2023-01-08T05:42:41.130Z,3.47
2023-01-08T05:45:08.914Z,3.35
2023-01-08T05:47:36.373Z,3.80
2023-01-08T05:50:04.007Z,3.47
2023-01-08T05:52:31.339Z,3.72
2023-01-08T05:55:00.361Z,5.07
2023-01-08T05:57:27.612Z,4.47
2023-01-08T05:59:55.207Z,5.35
2023-01-08T06:02:24.779Z,5.80
2023-01-08T06:04:51.963Z,5.30
2023-01-08T06:07:19.119Z,5.32
2023-01-08T06:09:46.442Z,5.10
2023-01-08T06:12:13.673Z,5.00
2023-01-08T06:14:40.843Z,5.10
2023-01-08T06:17:07.988Z,4.78
2023-01-08T06:19:35.184Z,5.60
2023-01-08T06:22:02.338Z,5.10
2023-01-08T06:24:29.485Z,5.13
2023-01-08T06:26:56.804Z,5.10
2023-01-08T06:29:24.119Z,5.03
2023-01-08T06:31:51.305Z,5.43
2023-01-08T06:34:18.526Z,5.38
2023-01-08T06:36:45.828Z,6.28
2023-01-08T06:39:13.621Z,6.93
2023-01-08T06:41:40.725Z,6.47
2023-01-08T06:44:08.128Z,6.70
2023-01-08T06:46:40.363Z,7.18
2023-01-08T06:49:08.221Z,5.97
2023-01-08T06:51:36.476Z,7.00
2023-01-08T06:54:03.890Z,6.57
2023-01-08T06:56:31.228Z,8.88
2023-01-08T06:58:58.460Z,7.13
2023-01-08T07:01:26.911Z,6.10
2023-01-08T07:03:54.105Z,6.13
2023-01-08T07:06:23.502Z,6.63
2023-01-08T07:08:50.819Z,7.10
2023-01-08T07:11:18.296Z,7.50
2023-01-08T07:16:15.464Z,6.13
2023-01-08T07:18:43.015Z,6.05
2023-01-08T07:23:38.868Z,6.90
2023-01-08T07:26:08.522Z,8.30
2023-01-08T07:28:35.747Z,7.93
2023-01-08T07:31:07.237Z,7.35
2023-01-08T07:33:36.460Z,8.20
2023-01-08T07:36:05.817Z,7.22
2023-01-08T07:38:33.456Z,8.05
2023-01-08T07:41:00.753Z,7.13
2023-01-08T07:43:30.233Z,8.23
2023-01-08T07:45:58.061Z,7.78
2023-01-08T07:48:25.457Z,7.75
2023-01-08T07:50:52.658Z,7.93
2023-01-08T07:53:20.185Z,7.25
2023-01-08T07:58:15.702Z,7.30
2023-01-08T08:03:13.762Z,9.10
2023-01-08T08:05:41.054Z,8.77
2023-01-08T08:08:13.195Z,8.55
2023-01-08T08:10:42.563Z,9.55
2023-01-08T08:13:11.297Z,10.52
2023-01-08T08:15:41.062Z,9.27
2023-01-08T08:18:08.720Z,10.00
2023-01-08T08:20:36.991Z,8.43
2023-01-08T08:23:10.877Z,10.57
2023-01-08T08:25:38.149Z,10.10
2023-01-08T08:28:05.881Z,8.65
2023-01-08T08:30:35.763Z,7.43
2023-01-08T08:33:06.395Z,7.80
2023-01-08T08:35:34.801Z,8.40
2023-01-08T08:38:02.150Z,9.52
2023-01-08T08:40:29.824Z,8.45
2023-01-08T08:43:04.896Z,8.23
2023-01-08T08:45:32.068Z,8.95
2023-01-08T08:47:59.322Z,8.05
2023-01-08T08:50:26.816Z,9.27
2023-01-08T08:53:02.828Z,8.50
2023-01-08T08:55:32.916Z,8.63
2023-01-08T08:58:11.276Z,8.00
2023-01-08T09:00:41.305Z,7.82
2023-01-08T09:03:15.075Z,8.63
2023-01-08T09:05:43.401Z,7.38
2023-01-08T09:08:12.237Z,7.10
2023-01-08T09:10:42.561Z,7.53
2023-01-08T09:13:11.003Z,6.40
2023-01-08T09:15:39.676Z,6.00
2023-01-08T09:18:07.012Z,4.93
2023-01-08T09:23:03.373Z,4.80
2023-01-08T09:25:31.387Z,4.45
2023-01-08T09:28:06.000Z,4.53
2023-01-08T09:30:34.014Z,4.28
2023-01-08T09:33:04.440Z,4.90
2023-01-08T09:35:34.981Z,5.22
2023-01-08T09:38:02.189Z,4.18
2023-01-08T09:40:42.885Z,4.32
2023-01-08T09:43:20.777Z,4.13
2023-01-08T09:45:59.784Z,3.60
2023-01-08T09:48:40.450Z,5.00
2023-01-08T09:51:17.729Z,4.28
2023-01-08T09:53:46.224Z,3.72
2023-01-08T09:56:18.879Z,3.13
2023-01-08T09:58:50.898Z,3.40
2023-01-08T10:01:44.747Z,2.72
2023-01-08T10:04:22.704Z,2.97
2023-01-08T10:06:56.889Z,3.72
2023-01-08T10:09:31.449Z,3.38
2023-01-08T10:12:06.145Z,3.60
2023-01-08T10:14:37.937Z,3.13
2023-01-08T10:17:37.566Z,4.32
2023-01-08T10:20:23.952Z,5.45
2023-01-08T10:22:54.460Z,4.68
2023-01-08T10:25:28.071Z,3.63
2023-01-08T10:28:02.988Z,2.85
2023-01-08T10:30:40.060Z,3.75
2023-01-08T10:33:41.028Z,2.80
2023-01-08T10:36:14.356Z,3.42
2023-01-08T10:39:00.615Z,4.05
2023-01-08T10:41:28.971Z,4.22
2023-01-08T10:44:02.487Z,3.78
2023-01-08T10:46:47.805Z,4.60
2023-01-08T10:49:42.921Z,4.55
2023-01-08T10:52:36.547Z,5.13
2023-01-08T10:55:29.909Z,5.05
2023-01-08T10:58:02.327Z,5.00
2023-01-08T11:00:34.643Z,4.75
2023-01-08T11:03:08.106Z,4.53
2023-01-08T11:05:39.356Z,4.30
2023-01-08T11:08:22.781Z,4.55
2023-01-08T11:11:00.118Z,4.18
2023-01-08T11:13:29.732Z,4.78
2023-01-08T11:16:04.696Z,5.20
2023-01-08T11:18:43.724Z,6.53
2023-01-08T11:21:45.349Z,6.15
2023-01-08T11:24:18.267Z,6.75
2023-01-08T11:26:54.733Z,6.43
2023-01-08T11:29:30.143Z,7.40
2023-01-08T11:32:41.956Z,7.45
2023-01-08T11:35:28.567Z,6.75
2023-01-08T11:41:16.783Z,7.18
2023-01-08T11:44:07.607Z,7.60
2023-01-08T11:47:14.494Z,9.40
2023-01-08T11:50:14.743Z,7.68
2023-01-08T11:53:09.895Z,8.43
2023-01-08T11:56:46.311Z,10.43
2023-01-08T11:59:30.068Z,10.70
2023-01-08T12:03:06.349Z,11.18
2023-01-08T12:05:43.021Z,10.45
2023-01-08T12:08:55.197Z,10.63
2023-01-08T12:11:32.895Z,9.77
2023-01-08T12:14:48.637Z,7.50
2023-01-08T12:17:47.357Z,6.20
2023-01-08T12:20:37.212Z,7.47
2023-01-08T12:23:39.151Z,6.65
2023-01-08T12:26:19.672Z,7.15
2023-01-08T12:29:07.403Z,7.03
2023-01-08T12:32:10.538Z,4.95
2023-01-08T12:34:54.508Z,4.65
2023-01-08T12:38:00.627Z,4.72
2023-01-08T12:40:59.951Z,3.55
2023-01-08T12:46:20.619Z,4.70
2023-01-08T12:48:52.952Z,3.67
2023-01-08T12:52:01.912Z,3.20
2023-01-08T12:55:10.027Z,2.78
2023-01-08T12:58:20.625Z,2.03
2023-01-08T13:01:21.480Z,1.40
2023-01-08T13:03:49.567Z,1.42
2023-01-08T13:06:20.848Z,1.40
2023-01-08T13:09:06.611Z,1.98
2023-01-08T13:11:38.664Z,1.58
2023-01-08T13:14:14.050Z,1.52
2023-01-08T13:16:46.378Z,0.95
2023-01-08T13:19:50.936Z,1.63
2023-01-08T13:22:37.413Z,1.77
2023-01-08T13:27:57.770Z,0.90
2023-01-08T13:30:38.911Z,1.65
2023-01-08T13:33:48.947Z,1.90
2023-01-08T13:36:28.661Z,1.00
2023-01-08T13:39:11.020Z,1.77
2023-01-08T13:41:56.798Z,2.08
2023-01-08T13:44:29.075Z,1.70
2023-01-08T13:47:04.692Z,2.22
2023-01-08T13:49:54.208Z,2.22
2023-01-08T13:52:45.578Z,2.13
2023-01-08T13:55:22.204Z,1.27
2023-01-08T13:57:55.862Z,1.30
2023-01-08T14:00:43.318Z,1.10
2023-01-08T14:03:35.745Z,0.98
2023-01-08T14:06:28.460Z,1.70
2023-01-08T14:09:02.617Z,1.70
2023-01-08T14:11:44.772Z,1.27
2023-01-08T14:14:20.555Z,1.25
2023-01-08T14:16:53.294Z,1.58
2023-01-08T14:19:25.552Z,1.10
2023-01-08T14:22:01.926Z,1.45
2023-01-08T14:24:29.227Z,1.90
2023-01-08T14:27:00.056Z,1.95
2023-01-08T14:29:30.980Z,1.92
2023-01-08T14:32:01.097Z,1.70
2023-01-08T14:34:32.069Z,1.73
2023-01-08T14:36:59.390Z,1.20
2023-01-08T14:39:38.462Z,1.45
2023-01-08T14:42:43.228Z,1.52
2023-01-08T14:45:22.749Z,1.75
2023-01-08T14:47:54.884Z,1.05
2023-01-08T14:50:34.765Z,1.00
2023-01-08T14:55:57.230Z,0.63
2023-01-08T14:58:29.993Z,1.13
2023-01-08T15:01:06.858Z,0.68
2023-01-08T15:03:42.765Z,0.82
2023-01-08T15:06:11.693Z,0.80
2023-01-08T15:08:42.277Z,0.63
2023-01-08T15:11:31.443Z,0.50
2023-01-08T15:13:59.287Z,0.82
2023-01-08T15:16:38.977Z,0.60
2023-01-08T15:19:22.354Z,0.60
2023-01-08T15:21:52.738Z,1.10
2023-01-08T15:24:39.421Z,0.85
2023-01-08T15:27:10.511Z,1.98
2023-01-08T15:30:00.360Z,1.10
2023-01-08T15:32:37.447Z,0.98
2023-01-08T15:35:18.342Z,1.17
2023-01-08T15:37:46.100Z,0.80
2023-01-08T15:40:13.719Z,0.50
2023-01-08T15:42:59.925Z,0.80
2023-01-08T15:45:32.588Z,1.00
2023-01-08T15:48:00.248Z,0.77
2023-01-08T15:50:29.204Z,0.88
2023-01-08T15:52:57.592Z,0.85
2023-01-08T15:55:26.604Z,0.73
2023-01-08T15:57:56.078Z,0.93
2023-01-08T16:00:24.998Z,0.70
2023-01-08T16:02:54.312Z,1.27
2023-01-08T16:05:24.258Z,1.20
2023-01-08T16:07:51.743Z,1.30
2023-01-08T16:12:47.316Z,2.55
2023-01-08T16:15:16.395Z,1.23
2023-01-08T16:17:44.606Z,1.95
2023-01-08T16:20:13.655Z,1.65
2023-01-08T16:22:41.366Z,2.65
2023-01-08T16:25:09.606Z,1.90
2023-01-08T16:27:38.523Z,1.60
2023-01-08T16:30:10.714Z,2.00
2023-01-08T16:32:38.017Z,2.40
2023-01-08T16:35:05.705Z,1.23
2023-01-08T16:37:32.806Z,1.52
2023-01-08T16:39:59.981Z,1.60
2023-01-08T16:42:27.297Z,3.85
2023-01-08T16:44:54.451Z,2.63
2023-01-08T16:47:21.844Z,2.20
2023-01-08T16:49:50.532Z,1.73
2023-01-08T16:52:19.823Z,1.98
2023-01-08T16:54:49.091Z,1.40
2023-01-08T16:57:16.212Z,1.85
2023-01-08T16:59:43.605Z,2.22
2023-01-08T17:02:11.457Z,1.92
2023-01-08T17:04:38.692Z,2.55
2023-01-08T17:07:06.076Z,3.20
2023-01-08T17:09:33.755Z,4.05
2023-01-08T17:12:01.321Z,1.90
2023-01-08T17:14:28.538Z,2.58
2023-01-08T17:16:55.683Z,2.35
2023-01-08T17:19:23.080Z,2.15
2023-01-08T17:21:51.027Z,2.58
2023-01-08T17:24:18.274Z,2.67
2023-01-08T17:26:45.569Z,4.18
2023-01-08T17:29:12.913Z,3.42
2023-01-08T17:31:40.423Z,3.95
2023-01-08T17:34:13.838Z,5.90
2023-01-08T17:36:41.296Z,4.68
2023-01-08T17:39:08.781Z,3.83
2023-01-08T17:42:09.144Z,3.75
2023-01-08T17:44:36.409Z,2.75
2023-01-08T17:47:03.765Z,3.40
2023-01-08T17:49:31.285Z,2.80
2023-01-08T17:51:58.508Z,2.95
2023-01-08T17:54:25.988Z,3.15
2023-01-08T17:59:21.273Z,2.80
2023-01-08T18:04:16.358Z,3.03
2023-01-08T18:09:12.873Z,6.07
2023-01-08T18:11:42.534Z,27.20
2023-01-08T18:14:15.817Z,8.98
2023-01-08T18:16:46.081Z,7.25
2023-01-08T18:19:15.950Z,9.98
2023-01-08T18:21:48.099Z,20.88
2023-01-08T18:24:16.031Z,10.43
2023-01-08T18:26:43.572Z,4.38
2023-01-08T18:31:38.019Z,4.78
2023-01-08T18:34:05.148Z,5.18
2023-01-08T18:36:32.396Z,4.40
2023-01-08T18:39:00.333Z,12.18
2023-01-08T18:41:47.621Z,16.65
2023-01-08T18:44:15.650Z,6.63
2023-01-08T18:46:43.092Z,12.40
2023-01-08T18:51:37.354Z,5.47
2023-01-08T18:54:05.018Z,3.38
2023-01-08T18:56:36.861Z,2.55
2023-01-08T18:59:07.008Z,3.40
2023-01-08T19:01:35.894Z,4.22
2023-01-08T19:04:03.586Z,4.35
2023-01-08T19:06:31.153Z,4.88
2023-01-08T19:11:27.216Z,5.32
2023-01-08T19:13:58.849Z,6.05
2023-01-08T19:16:26.833Z,5.70
2023-01-08T19:18:54.402Z,6.20
2023-01-08T19:23:49.595Z,4.85
2023-01-08T19:26:17.391Z,5.70
2023-01-08T19:28:45.396Z,5.22
2023-01-08T19:31:17.358Z,5.22
2023-01-08T19:33:46.423Z,5.18
2023-01-08T19:36:16.604Z,5.75
2023-01-08T19:38:45.350Z,4.68
2023-01-08T19:41:34.966Z,4.30
2023-01-08T19:44:03.462Z,4.10
2023-01-08T19:46:31.553Z,4.60
2023-01-08T19:49:01.698Z,3.47
2023-01-08T19:51:31.784Z,3.83
2023-01-08T19:54:01.064Z,4.40
2023-01-08T19:56:29.040Z,4.45
2023-01-08T19:58:59.907Z,4.50
2023-01-08T20:01:28.808Z,4.88
2023-01-08T20:03:56.949Z,4.85
2023-01-08T20:06:27.089Z,4.38
2023-01-08T20:08:59.976Z,4.13
2023-01-08T20:11:28.783Z,3.55
2023-01-08T20:14:01.459Z,3.90
2023-01-08T20:16:29.996Z,4.55
2023-01-08T20:19:03.597Z,2.97
2023-01-08T20:21:33.571Z,3.22
2023-01-08T20:24:07.048Z,3.80
2023-01-08T20:26:36.952Z,3.53
2023-01-08T20:29:05.511Z,2.58
2023-01-08T20:31:34.600Z,4.43
2023-01-08T20:34:05.616Z,2.22
2023-01-08T20:36:34.985Z,2.65
2023-01-08T20:39:11.903Z,4.15
2023-01-08T20:41:39.544Z,3.53
2023-01-08T20:44:07.376Z,4.22
2023-01-08T20:46:37.259Z,5.15
2023-01-08T20:49:10.376Z,4.55
2023-01-08T20:51:46.273Z,5.30
2023-01-08T20:54:18.787Z,6.15
2023-01-08T20:56:46.166Z,5.20
2023-01-08T20:59:13.585Z,5.00
2023-01-08T21:01:41.000Z,4.50
2023-01-08T21:04:10.309Z,5.60
2023-01-08T21:06:38.548Z,5.78
2023-01-08T21:09:10.864Z,6.13
2023-01-08T21:11:40.386Z,5.63
2023-01-08T21:14:08.968Z,6.50
2023-01-08T21:16:38.898Z,4.70
2023-01-08T21:19:06.728Z,5.80
2023-01-08T21:21:40.050Z,4.70
2023-01-08T21:24:12.663Z,4.82
2023-01-08T21:26:40.054Z,5.00
2023-01-08T21:29:09.251Z,5.50
2023-01-08T21:31:38.543Z,5.15
2023-01-08T21:34:09.112Z,4.88
2023-01-08T21:36:37.456Z,4.40
2023-01-08T21:39:05.839Z,5.18
2023-01-08T21:41:52.439Z,4.05
2023-01-08T21:44:41.726Z,4.18
2023-01-08T21:47:13.623Z,4.07
2023-01-08T21:49:44.529Z,5.68
2023-01-08T21:52:31.070Z,3.80
2023-01-08T21:55:05.450Z,3.38
2023-01-08T21:57:43.236Z,4.30
2023-01-08T22:00:13.246Z,3.53
2023-01-08T22:02:40.833Z,4.68
2023-01-08T22:05:08.828Z,3.97
2023-01-08T22:07:48.576Z,6.70
2023-01-08T22:10:18.930Z,5.05
2023-01-08T22:12:46.581Z,4.35
2023-01-08T22:15:14.361Z,5.03
2023-01-08T22:17:41.697Z,5.38
2023-01-08T22:20:10.333Z,6.43
2023-01-08T22:22:38.689Z,5.50
2023-01-08T22:25:07.616Z,5.97
2023-01-08T22:27:34.992Z,7.65
2023-01-08T22:30:02.378Z,5.25
2023-01-08T22:32:29.596Z,7.97
2023-01-08T22:34:59.705Z,4.40
2023-01-08T22:37:27.013Z,6.22
2023-01-08T22:39:54.299Z,5.88
2023-01-08T22:42:24.056Z,4.05
2023-01-08T22:44:51.409Z,5.15
2023-01-08T22:47:18.686Z,5.47
2023-01-08T22:49:47.793Z,3.92
2023-01-08T22:52:16.652Z,3.35
2023-01-08T22:54:44.093Z,3.58
2023-01-08T22:57:11.635Z,3.20
2023-01-08T23:02:06.098Z,6.05
2023-01-08T23:04:33.440Z,4.90
2023-01-08T23:07:00.643Z,3.83
2023-01-08T23:09:27.912Z,5.20
2023-01-08T23:11:55.162Z,4.65
2023-01-08T23:14:22.762Z,3.25
2023-01-08T23:16:50.138Z,3.22
2023-01-08T23:19:17.755Z,2.88
2023-01-08T23:24:14.201Z,3.90
2023-01-08T23:26:42.861Z,3.75
2023-01-08T23:29:10.908Z,3.42
2023-01-08T23:31:38.670Z,3.45
2023-01-08T23:34:07.703Z,2.50
2023-01-08T23:36:35.313Z,3.22
2023-01-08T23:39:03.088Z,2.92
2023-01-08T23:41:33.776Z,2.65
2023-01-08T23:44:15.140Z,2.00
2023-01-08T23:46:42.356Z,2.38
2023-01-08T23:49:10.650Z,3.38
2023-01-08T23:51:38.871Z,3.47
2023-01-08T23:54:06.283Z,4.13
2023-01-08T23:56:33.487Z,3.45
2023-01-08T23:59:01.142Z,3.30
